createdAt,value
2022-08-12T00:00:19.671Z,36.76
2022-08-12T00:03:05.061Z,36.75
2022-08-12T00:06:00.452Z,36.65
2022-08-12T00:08:55.256Z,37.46
2022-08-12T00:11:42.302Z,37.46
2022-08-12T00:14:28.751Z,36.79
2022-08-12T00:17:14.029Z,37.18
2022-08-12T00:19:59.430Z,37.81
2022-08-12T00:22:46.338Z,37.14
2022-08-12T00:26:05.482Z,36.72
2022-08-12T00:28:49.255Z,38.24
2022-08-12T00:31:34.764Z,36.16
2022-08-12T00:34:19.710Z,37.20
2022-08-12T00:37:15.229Z,37.71
2022-08-12T00:40:01.267Z,37.31
2022-08-12T00:42:32.821Z,37.83
2022-08-12T00:44:59.343Z,37.64
2022-08-12T00:47:26.186Z,38.37
2022-08-12T00:49:55.773Z,37.99
2022-08-12T00:52:23.987Z,38.28
2022-08-12T00:54:59.204Z,39.49
2022-08-12T00:57:31.580Z,38.94
2022-08-12T01:00:01.365Z,38.09
2022-08-12T01:02:29.070Z,38.61
2022-08-12T01:05:20.215Z,38.57
2022-08-12T01:08:06.655Z,40.23
2022-08-12T01:10:56.058Z,39.70
2022-08-12T01:13:23.825Z,39.08
2022-08-12T01:15:53.815Z,38.71
2022-08-12T01:18:23.402Z,40.00
2022-08-12T01:21:01.911Z,40.42
2022-08-12T01:23:34.544Z,40.51
2022-08-12T01:26:03.990Z,41.37
2022-08-12T01:28:34.567Z,40.52
2022-08-12T01:31:04.858Z,40.70
2022-08-12T01:33:41.077Z,40.29
2022-08-12T01:36:10.837Z,40.78
2022-08-12T01:38:38.564Z,40.70
2022-08-12T01:41:08.889Z,39.81
2022-08-12T01:43:36.791Z,40.24
2022-08-12T01:46:09.480Z,42.21
2022-08-12T01:49:07.432Z,42.97
2022-08-12T01:52:19.934Z,43.11
2022-08-12T01:54:38.615Z,43.46
2022-08-12T01:57:13.669Z,43.81
2022-08-12T02:00:05.103Z,43.17
2022-08-12T02:02:41.010Z,44.74
2022-08-12T02:05:48.419Z,46.94
2022-08-12T02:09:01.006Z,44.60
2022-08-12T02:11:32.193Z,43.05
2022-08-12T02:14:25.062Z,44.65
2022-08-12T02:17:16.415Z,45.00
2022-08-12T02:20:04.350Z,46.00
2022-08-12T02:22:38.891Z,45.93
2022-08-12T02:25:10.013Z,46.07
2022-08-12T02:27:45.768Z,44.99
2022-08-12T02:30:19.393Z,44.83
2022-08-12T02:32:47.595Z,45.11
2022-08-12T02:35:19.696Z,44.60
2022-08-12T02:37:48.474Z,45.64
2022-08-12T02:40:17.606Z,46.24
2022-08-12T02:43:05.751Z,46.10
2022-08-12T02:45:52.845Z,46.57
2022-08-12T02:48:31.210Z,45.53
2022-08-12T02:51:03.560Z,45.59
2022-08-12T02:53:31.897Z,45.60
2022-08-12T02:56:05.605Z,45.50
2022-08-12T02:58:35.040Z,46.26
2022-08-12T03:01:04.606Z,47.36
2022-08-12T03:03:33.664Z,48.16
2022-08-12T03:06:08.711Z,48.31
2022-08-12T03:08:46.074Z,48.77
2022-08-12T03:11:37.730Z,48.84
2022-08-12T03:14:13.951Z,49.58
2022-08-12T03:16:41.269Z,50.05
2022-08-12T03:19:08.710Z,51.06
2022-08-12T03:21:52.973Z,51.69
2022-08-12T03:24:27.450Z,51.37
2022-08-12T03:26:55.478Z,51.99
2022-08-12T03:29:30.836Z,51.99
2022-08-12T03:32:02.654Z,52.23
2022-08-12T03:34:33.890Z,52.52
2022-08-12T03:37:00.987Z,52.04
2022-08-12T03:39:40.014Z,52.70
2022-08-12T03:43:04.692Z,52.73
2022-08-12T03:45:52.966Z,52.01
2022-08-12T03:48:39.357Z,52.08
2022-08-12T03:51:24.918Z,51.55
2022-08-12T03:54:11.513Z,51.94
2022-08-12T03:56:57.574Z,51.36
2022-08-12T03:59:42.549Z,51.48
2022-08-12T04:02:14.552Z,51.10
2022-08-12T04:04:45.157Z,50.70
2022-08-12T04:07:13.801Z,50.52
2022-08-12T04:09:43.786Z,51.46
2022-08-12T04:12:32.696Z,51.57
2022-08-12T04:15:00.593Z,52.27
2022-08-12T04:17:28.348Z,51.22
2022-08-12T04:19:59.596Z,52.91
2022-08-12T04:22:29.755Z,53.48
2022-08-12T04:24:59.816Z,53.16
2022-08-12T04:27:26.901Z,52.90
2022-08-12T04:30:29.308Z,53.10
2022-08-12T04:32:44.299Z,53.46
2022-08-12T04:35:12.245Z,53.79
2022-08-12T04:37:59.227Z,50.35
2022-08-12T04:40:30.230Z,50.35
2022-08-12T04:42:57.604Z,52.33
2022-08-12T04:45:24.936Z,53.96
2022-08-12T04:47:52.100Z,54.58
2022-08-12T04:50:34.779Z,54.15
2022-08-12T04:53:08.360Z,53.78
2022-08-12T04:55:37.801Z,54.12
2022-08-12T04:58:04.725Z,54.27
2022-08-12T05:00:31.417Z,52.50
2022-08-12T05:02:58.012Z,51.42
2022-08-12T05:05:24.713Z,50.35
2022-08-12T05:07:54.585Z,49.18
2022-08-12T05:10:33.938Z,48.34
2022-08-12T05:13:07.441Z,48.06
2022-08-12T05:15:36.110Z,48.76
2022-08-12T05:18:12.085Z,48.83
2022-08-12T05:20:46.399Z,47.48
2022-08-12T05:23:15.701Z,50.29
2022-08-12T05:25:43.628Z,51.63
2022-08-12T05:28:10.856Z,52.50
2022-08-12T05:30:37.434Z,53.09
2022-08-12T05:33:05.399Z,53.16
2022-08-12T05:35:36.921Z,52.65
2022-08-12T05:38:22.309Z,53.04
2022-08-12T05:40:48.985Z,53.48
2022-08-12T05:43:16.104Z,53.49
2022-08-12T05:45:44.873Z,53.25
2022-08-12T05:48:12.252Z,52.13
2022-08-12T05:50:41.313Z,51.65
2022-08-12T05:53:08.364Z,51.05
2022-08-12T05:55:36.359Z,51.31
2022-08-12T05:58:04.840Z,51.04
2022-08-12T06:00:32.408Z,51.33
2022-08-12T06:03:02.363Z,51.30
2022-08-12T06:05:52.734Z,49.31
2022-08-12T06:08:21.333Z,49.12
2022-08-12T06:10:50.110Z,49.40
2022-08-12T06:13:26.861Z,48.89
2022-08-12T06:15:55.615Z,49.64
2022-08-12T06:18:25.380Z,49.29
2022-08-12T06:21:00.208Z,49.49
2022-08-12T06:23:29.727Z,49.87
2022-08-12T06:25:57.400Z,50.31
2022-08-12T06:28:24.106Z,50.02
2022-08-12T06:31:08.580Z,49.85
2022-08-12T06:34:01.092Z,50.88
2022-08-12T06:36:29.575Z,50.30
2022-08-12T06:38:59.174Z,49.73
2022-08-12T06:42:04.987Z,49.90
2022-08-12T06:44:32.214Z,48.22
2022-08-12T06:46:58.790Z,48.54
2022-08-12T06:49:25.382Z,48.17
2022-08-12T06:51:56.962Z,49.02
2022-08-12T06:54:31.037Z,48.73
2022-08-12T06:57:04.345Z,47.52
2022-08-12T06:59:32.305Z,47.47
2022-08-12T07:01:58.891Z,45.91
2022-08-12T07:04:36.393Z,44.60
2022-08-12T07:07:05.551Z,45.63
2022-08-12T07:10:01.328Z,46.31
2022-08-12T07:12:19.979Z,47.70
2022-08-12T07:14:51.586Z,47.37
2022-08-12T07:17:18.739Z,46.66
2022-08-12T07:19:48.542Z,47.08
2022-08-12T07:22:16.107Z,47.90
2022-08-12T07:24:42.660Z,47.89
2022-08-12T07:27:09.538Z,48.07
2022-08-12T07:30:03.846Z,48.54
2022-08-12T07:32:25.540Z,47.56
2022-08-12T07:34:54.676Z,47.04
2022-08-12T07:37:21.464Z,47.99
2022-08-12T07:39:50.328Z,46.33
2022-08-12T07:42:26.518Z,49.78
2022-08-12T07:44:53.398Z,54.35
2022-08-12T07:47:20.020Z,60.29
2022-08-12T07:50:04.590Z,62.79
2022-08-12T07:52:38.530Z,68.49
2022-08-12T07:55:05.911Z,67.52
2022-08-12T07:57:32.834Z,68.49
2022-08-12T08:00:06.738Z,70.74
2022-08-12T08:02:33.754Z,70.28
2022-08-12T08:05:00.697Z,65.36
2022-08-12T08:07:30.649Z,60.34
2022-08-12T08:09:59.878Z,62.05
2022-08-12T08:12:46.741Z,59.55
2022-08-12T08:15:44.506Z,58.42
2022-08-12T08:18:26.540Z,60.69
2022-08-12T08:20:54.995Z,62.32
2022-08-12T08:23:56.275Z,54.18
2022-08-12T08:26:24.892Z,54.98
2022-08-12T08:28:51.501Z,55.61
2022-08-12T08:31:18.736Z,53.40
2022-08-12T08:34:08.935Z,52.88
2022-08-12T08:36:31.778Z,51.12
2022-08-12T08:38:58.858Z,54.52
2022-08-12T08:42:17.737Z,55.82
2022-08-12T08:44:39.428Z,55.18
2022-08-12T08:47:06.909Z,52.10
2022-08-12T08:49:38.542Z,51.25
2022-08-12T08:52:06.748Z,53.50
2022-08-12T08:54:33.915Z,52.84
2022-08-12T08:57:01.603Z,50.93
2022-08-12T08:59:28.762Z,51.61
2022-08-12T09:01:56.397Z,50.81
2022-08-12T09:05:13.343Z,50.81
2022-08-12T09:07:17.780Z,50.10
2022-08-12T09:10:02.345Z,48.69
2022-08-12T09:15:36.601Z,48.20
2022-08-12T09:20:52.333Z,48.14
2022-08-12T09:28:53.223Z,46.08
2022-08-12T09:32:03.446Z,44.70
2022-08-12T09:34:26.772Z,45.57
2022-08-12T09:37:02.989Z,45.46
2022-08-12T09:40:03.556Z,44.95
2022-08-12T09:43:10.963Z,43.70
2022-08-12T09:46:11.634Z,42.89
2022-08-12T09:48:24.155Z,43.35
2022-08-12T09:50:55.242Z,42.61
2022-08-12T09:53:29.371Z,41.75
2022-08-12T09:56:58.276Z,41.39
2022-08-12T09:59:00.369Z,40.13
2022-08-12T10:01:35.020Z,40.68
2022-08-12T10:04:19.740Z,39.88
2022-08-12T10:06:54.966Z,40.84
2022-08-12T10:09:28.830Z,40.15
2022-08-12T10:12:32.879Z,39.30
2022-08-12T10:15:00.550Z,37.42
2022-08-12T10:17:27.479Z,38.97
2022-08-12T10:19:54.146Z,37.95
2022-08-12T10:22:40.027Z,37.99
2022-08-12T10:26:34.179Z,37.64
2022-08-12T10:28:32.417Z,37.10
2022-08-12T10:31:01.157Z,37.59
2022-08-12T10:33:30.835Z,37.75
2022-08-12T10:35:59.793Z,38.92
2022-08-12T10:38:34.247Z,38.88
2022-08-12T10:41:57.994Z,38.08
2022-08-12T10:44:12.754Z,39.04
2022-08-12T10:46:49.905Z,38.29
2022-08-12T10:50:04.609Z,38.46
2022-08-12T10:52:34.807Z,38.55
2022-08-12T10:54:55.936Z,39.05
2022-08-12T10:58:12.857Z,38.82
2022-08-12T11:00:35.105Z,39.41
2022-08-12T11:04:27.265Z,39.24
2022-08-12T11:07:05.443Z,39.92
2022-08-12T11:08:42.219Z,39.64
2022-08-12T11:11:13.369Z,39.97
2022-08-12T11:13:46.823Z,39.39
2022-08-12T11:16:21.879Z,39.49
2022-08-12T11:18:55.101Z,39.83
2022-08-12T11:21:22.777Z,39.28
2022-08-12T11:24:18.799Z,39.15
2022-08-12T11:29:26.204Z,38.63
2022-08-12T11:32:01.751Z,38.01
2022-08-12T11:34:53.427Z,37.69
2022-08-12T11:37:26.068Z,37.88
2022-08-12T11:42:39.682Z,37.50
2022-08-12T11:45:12.676Z,37.39
2022-08-12T11:47:42.992Z,38.07
2022-08-12T11:50:11.811Z,38.25
2022-08-12T11:52:56.758Z,37.74
2022-08-12T11:55:25.365Z,37.58
2022-08-12T11:58:40.553Z,38.28
2022-08-12T12:03:43.656Z,36.12
2022-08-12T12:06:17.241Z,36.50
2022-08-12T12:08:50.486Z,35.26
2022-08-12T12:11:18.384Z,36.19
2022-08-12T12:14:07.631Z,35.72
2022-08-12T12:16:33.550Z,35.45
2022-08-12T12:19:05.519Z,36.75
2022-08-12T12:21:46.990Z,36.58
2022-08-12T12:24:20.947Z,35.76
2022-08-12T12:27:00.931Z,35.71
2022-08-12T12:30:18.381Z,35.57
2022-08-12T12:32:18.766Z,36.24
2022-08-12T12:35:44.257Z,34.96
2022-08-12T12:38:03.917Z,34.80
2022-08-12T12:40:19.399Z,34.53
2022-08-12T12:42:55.911Z,34.48
2022-08-12T12:45:27.754Z,33.75
2022-08-12T12:48:04.620Z,34.19
2022-08-12T12:50:42.482Z,34.44
2022-08-12T12:54:05.304Z,34.21
2022-08-12T12:56:03.622Z,34.71
2022-08-12T12:58:30.248Z,34.03
2022-08-12T13:01:01.225Z,34.58
2022-08-12T13:03:49.392Z,34.60
2022-08-12T13:06:16.210Z,35.74
2022-08-12T13:08:46.915Z,35.16
2022-08-12T13:11:14.694Z,35.48
2022-08-12T13:14:07.449Z,34.72
2022-08-12T13:16:29.668Z,35.38
2022-08-12T13:18:57.347Z,35.25
2022-08-12T13:21:32.889Z,35.93
2022-08-12T13:24:10.063Z,35.45
2022-08-12T13:26:40.002Z,34.56
2022-08-12T13:29:11.354Z,34.66
2022-08-12T13:31:46.554Z,34.86
2022-08-12T13:34:32.713Z,34.42
2022-08-12T13:37:09.172Z,34.57
2022-08-12T13:39:36.733Z,34.50
2022-08-12T13:42:03.375Z,34.69
2022-08-12T13:44:30.226Z,34.60
2022-08-12T13:46:58.592Z,33.75
2022-08-12T13:49:55.054Z,33.90
2022-08-12T13:52:13.861Z,34.06
2022-08-12T13:54:40.574Z,33.87
2022-08-12T13:57:11.184Z,34.68
2022-08-12T13:59:47.896Z,35.22
2022-08-12T14:02:15.876Z,34.15
2022-08-12T14:04:45.492Z,33.78
2022-08-12T14:07:23.383Z,32.83
2022-08-12T14:10:11.443Z,33.44
2022-08-12T14:12:40.198Z,32.37
2022-08-12T14:15:21.641Z,32.37
2022-08-12T14:18:13.163Z,32.62
2022-08-12T14:20:40.736Z,32.67
2022-08-12T14:24:05.718Z,33.05
2022-08-12T14:26:00.639Z,32.99
2022-08-12T14:28:31.066Z,33.09
2022-08-12T14:31:03.261Z,33.33
2022-08-12T14:33:44.418Z,33.27
2022-08-12T14:36:12.735Z,33.68
2022-08-12T14:38:41.789Z,33.92
2022-08-12T14:41:10.882Z,33.86
2022-08-12T14:43:59.106Z,34.52
2022-08-12T14:46:24.962Z,33.31
2022-08-12T14:48:54.839Z,33.62
2022-08-12T14:52:43.196Z,34.33
2022-08-12T14:57:00.109Z,34.62
2022-08-12T14:57:20.657Z,34.11
2022-08-12T15:00:03.516Z,34.01
2022-08-12T15:02:30.087Z,33.71
2022-08-12T15:04:59.169Z,34.35
2022-08-12T15:07:32.771Z,34.46
2022-08-12T15:10:10.133Z,34.79
2022-08-12T15:12:36.834Z,35.51
2022-08-12T15:15:08.862Z,35.11
2022-08-12T15:17:38.669Z,35.54
2022-08-12T15:20:32.040Z,35.09
2022-08-12T15:22:55.040Z,34.96
2022-08-12T15:25:21.680Z,33.72
2022-08-12T15:28:05.128Z,35.43
2022-08-12T15:30:34.738Z,35.34
2022-08-12T15:33:12.225Z,35.69
2022-08-12T15:35:52.026Z,36.37
2022-08-12T15:38:25.231Z,35.48
2022-08-12T15:40:53.043Z,34.92
2022-08-12T15:43:35.457Z,35.06
2022-08-12T15:46:14.825Z,36.00
2022-08-12T15:48:47.096Z,36.99
2022-08-12T15:51:57.582Z,36.80
2022-08-12T15:54:34.312Z,36.29
2022-08-12T15:57:05.814Z,36.01
2022-08-12T15:59:59.934Z,36.38
2022-08-12T16:02:22.253Z,36.96
2022-08-12T16:04:53.426Z,36.50
2022-08-12T16:07:30.178Z,36.45
2022-08-12T16:10:04.708Z,36.46
2022-08-12T16:12:34.275Z,36.01
2022-08-12T16:15:01.647Z,35.76
2022-08-12T16:18:14.897Z,35.64
2022-08-12T16:20:33.314Z,35.71
2022-08-12T16:23:26.739Z,36.50
2022-08-12T16:26:03.197Z,34.77
2022-08-12T16:28:33.562Z,34.82
2022-08-12T16:31:00.629Z,34.50
2022-08-12T16:33:59.284Z,34.75
2022-08-12T16:36:29.518Z,34.12
2022-08-12T16:38:56.423Z,35.13
2022-08-12T16:41:23.378Z,34.22
2022-08-12T16:43:52.960Z,34.83
2022-08-12T16:46:31.318Z,33.92
2022-08-12T16:49:09.325Z,34.98
2022-08-12T16:51:45.894Z,33.44
2022-08-12T16:54:16.153Z,33.66
2022-08-12T16:56:55.507Z,33.06
2022-08-12T16:59:52.728Z,33.57
2022-08-12T17:02:31.598Z,33.63
2022-08-12T17:05:01.017Z,35.17
2022-08-12T17:07:36.512Z,33.03
2022-08-12T17:10:06.247Z,33.96
2022-08-12T17:12:32.839Z,33.31
2022-08-12T17:14:59.498Z,33.54
2022-08-12T17:17:39.391Z,34.44
2022-08-12T17:20:28.880Z,34.39
2022-08-12T17:22:57.540Z,35.28
2022-08-12T17:25:24.451Z,35.51
2022-08-12T17:27:57.191Z,35.69
2022-08-12T17:30:24.512Z,36.69
2022-08-12T17:32:53.344Z,36.86
2022-08-12T17:35:37.389Z,37.04
2022-08-12T17:38:11.817Z,37.77
2022-08-12T17:40:38.700Z,37.66
2022-08-12T17:43:55.899Z,37.12
2022-08-12T17:45:59.006Z,37.35
2022-08-12T17:48:34.242Z,37.32
2022-08-12T17:51:07.140Z,37.34
2022-08-12T17:54:02.277Z,37.29
2022-08-12T17:56:32.055Z,38.29
2022-08-12T17:59:00.333Z,38.46
2022-08-12T18:01:28.891Z,39.61
2022-08-12T18:04:20.447Z,39.34
2022-08-12T18:06:50.472Z,42.71
2022-08-12T18:09:18.243Z,43.95
2022-08-12T18:12:07.860Z,45.76
2022-08-12T18:14:36.940Z,44.47
2022-08-12T18:17:08.175Z,46.27
2022-08-12T18:20:05.421Z,48.83
2022-08-12T18:22:30.684Z,53.54
2022-08-12T18:25:05.028Z,60.39
2022-08-12T18:27:43.077Z,67.00
2022-08-12T18:30:13.421Z,69.73
2022-08-12T18:32:58.236Z,68.99
2022-08-12T18:35:46.469Z,66.31
2022-08-12T18:38:17.135Z,66.53
2022-08-12T18:41:10.189Z,63.48
2022-08-12T18:43:58.474Z,62.90
2022-08-12T18:46:32.134Z,63.17
2022-08-12T18:49:03.896Z,65.60
2022-08-12T18:51:54.891Z,65.31
2022-08-12T18:54:27.394Z,67.17
2022-08-12T18:56:57.535Z,67.40
2022-08-12T19:00:01.852Z,66.15
2022-08-12T19:02:21.148Z,65.85
2022-08-12T19:04:53.415Z,67.84
2022-08-12T19:07:25.391Z,69.93
2022-08-12T19:10:02.179Z,72.65
2022-08-12T19:12:57.488Z,72.58
2022-08-12T19:15:26.138Z,66.64
2022-08-12T19:18:00.697Z,66.84
2022-08-12T19:20:32.867Z,67.41
2022-08-12T19:23:07.172Z,72.51
2022-08-12T19:26:00.283Z,68.69
2022-08-12T19:28:29.800Z,70.04
2022-08-12T19:31:15.714Z,69.65
2022-08-12T19:34:06.538Z,72.30
2022-08-12T19:36:34.689Z,69.71
2022-08-12T19:39:02.912Z,68.34
2022-08-12T19:42:00.798Z,67.68
2022-08-12T19:44:28.904Z,67.51
2022-08-12T19:46:56.325Z,67.26
2022-08-12T19:49:23.124Z,69.91
2022-08-12T19:51:50.516Z,69.39
2022-08-12T19:54:30.337Z,70.84
2022-08-12T19:56:58.499Z,72.56
2022-08-12T19:59:43.297Z,75.61
2022-08-12T20:02:41.456Z,69.09
2022-08-12T20:06:05.633Z,73.48
2022-08-12T20:08:03.072Z,69.93
2022-08-12T20:10:36.160Z,71.88
2022-08-12T20:13:18.270Z,77.32
2022-08-12T20:15:59.754Z,79.90
2022-08-12T20:18:52.978Z,80.26
2022-08-12T20:21:16.007Z,87.29
2022-08-12T20:23:59.698Z,88.65
2022-08-12T20:26:27.218Z,88.49
2022-08-12T20:28:54.789Z,77.96
2022-08-12T20:31:21.394Z,67.18
2022-08-12T20:33:50.703Z,68.80
2022-08-12T20:36:41.747Z,80.46
2022-08-12T20:39:34.218Z,87.75
2022-08-12T20:42:06.215Z,89.16
2022-08-12T20:44:39.991Z,90.01
2022-08-12T20:47:19.878Z,85.59
2022-08-12T20:49:54.994Z,88.81
2022-08-12T20:52:29.789Z,90.50
2022-08-12T20:54:57.684Z,89.46
2022-08-12T20:57:24.410Z,89.63
2022-08-12T20:59:53.736Z,92.92
2022-08-12T21:02:24.415Z,91.03
2022-08-12T21:05:16.138Z,87.78
2022-08-12T21:07:47.777Z,85.40
2022-08-12T21:10:20.782Z,83.81
2022-08-12T21:12:48.108Z,84.77
2022-08-12T21:15:17.628Z,85.46
2022-08-12T21:18:11.552Z,89.38
2022-08-12T21:20:52.471Z,87.88
2022-08-12T21:23:21.278Z,91.76
2022-08-12T21:25:49.133Z,92.23
2022-08-12T21:28:20.544Z,90.23
2022-08-12T21:31:11.449Z,89.43
2022-08-12T21:34:06.204Z,89.70
2022-08-12T21:36:34.448Z,81.58
2022-08-12T21:39:19.061Z,74.96
2022-08-12T21:41:50.064Z,69.59
2022-08-12T21:44:24.555Z,72.92
2022-08-12T21:47:21.555Z,85.68
2022-08-12T21:50:03.914Z,90.33
2022-08-12T21:52:36.014Z,93.00
2022-08-12T21:55:18.233Z,91.58
2022-08-12T21:57:51.435Z,92.79
2022-08-12T22:00:31.760Z,91.33
2022-08-12T22:03:25.113Z,89.83
2022-08-12T22:06:26.220Z,89.76
2022-08-12T22:09:03.721Z,90.70
2022-08-12T22:11:41.578Z,87.89
2022-08-12T22:14:10.348Z,85.19
2022-08-12T22:16:48.869Z,86.59
2022-08-12T22:19:22.868Z,88.12
2022-08-12T22:21:53.488Z,89.15
2022-08-12T22:24:26.298Z,90.51
2022-08-12T22:26:57.083Z,90.95
2022-08-12T22:29:42.290Z,88.53
2022-08-12T22:32:11.536Z,82.12
2022-08-12T22:34:39.237Z,82.06
2022-08-12T22:37:05.919Z,77.42
2022-08-12T22:39:43.896Z,82.02
2022-08-12T22:42:30.607Z,85.37
2022-08-12T22:45:16.654Z,86.44
2022-08-12T22:47:53.572Z,88.72
2022-08-12T22:50:27.221Z,87.71
2022-08-12T22:53:14.627Z,89.59
2022-08-12T22:55:59.048Z,88.56
2022-08-12T22:58:27.357Z,86.61
2022-08-12T23:00:58.335Z,82.89
2022-08-12T23:03:48.423Z,81.34
2022-08-12T23:06:16.838Z,81.47
2022-08-12T23:08:43.528Z,79.84
2022-08-12T23:11:10.393Z,76.85
2022-08-12T23:13:47.256Z,76.83
2022-08-12T23:16:28.465Z,78.01
2022-08-12T23:19:10.980Z,80.23
2022-08-12T23:22:04.977Z,80.13
2022-08-12T23:24:38.563Z,78.82
2022-08-12T23:27:23.905Z,79.17
2022-08-12T23:30:18.755Z,79.48
2022-08-12T23:32:54.823Z,79.47
2022-08-12T23:35:45.276Z,80.79
2022-08-12T23:38:28.949Z,79.82
2022-08-12T23:40:59.943Z,75.27
2022-08-12T23:43:39.867Z,71.17
2022-08-12T23:46:19.505Z,74.61
2022-08-12T23:48:50.397Z,77.06
2022-08-12T23:51:25.311Z,77.90
2022-08-12T23:53:55.355Z,77.30
2022-08-12T23:56:23.676Z,77.41
2022-08-12T23:58:52.829Z,78.59
